Time;durP1;ratioP1;P1;durP2;ratioP2;P2;SDS_P1;SDS_P2;PMS_P1;PMS_P2;Temp;Humidity;BMP_temperature;BMP_pressure;BME280_temperature;BME280_humidity;BME280_pressure;Samples;Min_cycle;Max_cycle;Signal;HPM_P1;HPM_P2
2022/11/26 00:02:17;;;;;;;43.70;39.30;;;7.40;99.90;;;;;;5029527;28;20903;-53
2022/11/26 00:04:43;;;;;;;43.20;38.97;;;7.40;99.90;;;;;;5029747;28;20430;-48
2022/11/26 00:07:11;;;;;;;41.97;37.90;;;7.50;99.90;;;;;;5029487;28;20559;-50
2022/11/26 00:09:37;;;;;;;40.83;37.03;;;7.50;99.90;;;;;;5029584;28;20186;-57
2022/11/26 00:12:20;;;;;;;40.70;36.50;;;7.60;99.90;;;;;;5029977;28;20413;-48
2022/11/26 00:14:46;;;;;;;40.77;37.07;;;7.60;99.90;;;;;;5028609;28;20433;-50
2022/11/26 00:17:14;;;;;;;39.00;35.40;;;7.60;99.90;;;;;;5029349;28;20448;-54
2022/11/26 00:19:40;;;;;;;41.00;37.10;;;7.70;99.90;;;;;;5029198;28;20460;-53
2022/11/26 00:22:22;;;;;;;39.57;35.63;;;7.70;99.90;;;;;;5029172;28;20424;-52
2022/11/26 00:24:48;;;;;;;38.07;34.87;;;7.70;99.90;;;;;;5028234;28;20776;-50
2022/11/26 00:27:13;;;;;;;38.93;35.07;;;7.80;99.90;;;;;;5029500;28;20420;-50
2022/11/26 00:29:39;;;;;;;36.60;33.20;;;7.80;99.90;;;;;;5026368;28;20857;-49
2022/11/26 00:32:15;;;;;;;36.90;33.70;;;7.80;99.90;;;;;;5027679;28;20193;-54
2022/11/26 00:34:40;;;;;;;38.83;35.23;;;7.80;99.90;;;;;;5029071;28;20525;-55
2022/11/26 00:37:23;;;;;;;37.77;34.47;;;7.80;99.90;;;;;;5029203;28;20416;-51
2022/11/26 00:39:49;;;;;;;38.30;34.93;;;7.80;99.90;;;;;;5028268;28;20179;-54
2022/11/26 00:42:16;;;;;;;36.47;33.33;;;7.80;99.90;;;;;;5029849;28;20887;-51
2022/11/26 00:44:42;;;;;;;37.60;33.87;;;7.80;99.90;;;;;;5028885;28;20426;-51
2022/11/26 00:47:08;;;;;;;37.03;33.83;;;7.90;99.90;;;;;;5028870;28;20425;-54
2022/11/26 00:49:34;;;;;;;37.90;34.70;;;7.90;99.90;;;;;;5028682;28;20417;-53
2022/11/26 00:51:59;;;;;;;36.67;33.40;;;7.90;99.90;;;;;;5028881;28;20778;-52
2022/11/26 00:54:25;;;;;;;37.33;33.93;;;7.90;99.90;;;;;;5026500;28;20179;-51
2022/11/26 00:56:51;;;;;;;37.80;34.20;;;7.90;99.90;;;;;;5028624;28;20202;-54
2022/11/26 00:59:20;;;;;;;37.17;33.53;;;7.90;99.90;;;;;;5027340;28;20281;-53
2022/11/26 01:01:45;;;;;;;36.77;33.30;;;7.90;99.90;;;;;;5028597;28;20513;-55
2022/11/26 01:04:11;;;;;;;35.07;31.97;;;7.90;99.90;;;;;;5028530;28;20503;-50
2022/11/26 01:06:40;;;;;;;35.23;32.23;;;7.90;99.90;;;;;;5028384;28;20236;-52
2022/11/26 01:09:12;;;;;;;36.33;33.13;;;8.00;99.90;;;;;;5027572;28;20192;-50
2022/11/26 01:11:38;;;;;;;35.10;32.10;;;8.00;99.90;;;;;;5028691;28;20486;-52
2022/11/26 01:14:04;;;;;;;35.53;32.20;;;8.00;99.90;;;;;;5028521;28;20926;-53
2022/11/26 01:16:35;;;;;;;34.20;31.40;;;8.00;99.90;;;;;;5028478;28;20194;-51
2022/11/26 01:19:02;;;;;;;33.33;30.50;;;8.00;99.90;;;;;;5028394;28;20464;-49
2022/11/26 01:21:29;;;;;;;35.23;32.30;;;8.00;99.90;;;;;;5028756;28;20417;-51
2022/11/26 01:23:55;;;;;;;34.50;31.80;;;8.10;99.90;;;;;;5028687;28;20776;-56
2022/11/26 01:26:24;;;;;;;32.33;29.33;;;8.10;99.90;;;;;;5028354;28;20483;-53
2022/11/26 01:28:50;;;;;;;31.77;28.57;;;8.10;99.90;;;;;;5019597;28;20265;-51
2022/11/26 01:31:24;;;;;;;32.03;29.13;;;8.10;99.90;;;;;;5022693;28;20774;-54
2022/11/26 01:33:50;;;;;;;32.70;29.70;;;8.10;99.90;;;;;;5016073;28;20409;-50
2022/11/26 01:36:22;;;;;;;32.07;29.40;;;8.10;99.90;;;;;;5029978;28;20439;-52
2022/11/26 01:38:48;;;;;;;32.80;29.80;;;8.10;99.90;;;;;;5032235;28;20459;-50
2022/11/26 01:41:53;;;;;;;31.10;28.40;;;8.10;99.90;;;;;;5031527;28;20507;-52
2022/11/26 01:44:24;;;;;;;31.30;28.47;;;8.10;99.90;;;;;;5026392;28;20425;-52
2022/11/26 01:46:52;;;;;;;30.90;28.20;;;8.00;99.90;;;;;;5032478;28;20983;-56
2022/11/26 01:49:22;;;;;;;30.50;27.80;;;8.00;99.90;;;;;;5031980;28;20456;-57
2022/11/26 01:52:06;;;;;;;29.60;27.10;;;8.00;99.90;;;;;;5031554;28;20427;-51
2022/11/26 01:54:35;;;;;;;29.90;27.40;;;8.00;99.90;;;;;;5031843;28;20452;-48
2022/11/26 01:57:18;;;;;;;32.07;28.87;;;8.00;99.90;;;;;;5031976;28;20429;-54
2022/11/26 01:59:51;;;;;;;30.73;27.77;;;8.00;99.90;;;;;;5029042;28;20460;-54
2022/11/26 02:02:18;;;;;;;32.20;29.27;;;8.00;99.90;;;;;;5031864;28;20429;-53
2022/11/26 02:05:10;;;;;;;31.97;28.87;;;8.00;99.90;;;;;;5030380;28;20447;-51
2022/11/26 02:07:37;;;;;;;31.90;29.00;;;8.00;99.90;;;;;;5030708;28;20449;-50
2022/11/26 02:10:03;;;;;;;32.07;29.20;;;8.00;99.90;;;;;;5031885;28;20420;-52
2022/11/26 02:12:29;;;;;;;31.33;28.23;;;8.00;99.90;;;;;;5031856;28;20508;-52
2022/11/26 02:14:55;;;;;;;32.00;28.67;;;8.10;99.90;;;;;;5031894;28;20492;-55
2022/11/26 02:17:29;;;;;;;30.67;28.17;;;8.10;99.90;;;;;;5031623;28;20237;-55
2022/11/26 02:20:18;;;;;;;34.83;32.03;;;8.10;99.90;;;;;;5031958;28;20289;-53
2022/11/26 02:23:25;;;;;;;34.70;31.90;;;8.10;99.90;;;;;;5030205;28;20464;-54
2022/11/26 02:25:50;;;;;;;36.63;33.03;;;8.10;99.90;;;;;;5031587;28;20424;-50
2022/11/26 02:28:35;;;;;;;37.50;34.27;;;8.10;99.90;;;;;;5030883;28;20432;-51
2022/11/26 02:31:07;;;;;;;37.00;33.80;;;8.00;99.90;;;;;;5030922;28;20183;-50
2022/11/26 02:33:47;;;;;;;35.27;32.27;;;8.00;99.90;;;;;;5030643;28;20456;-55
2022/11/26 02:36:31;;;;;;;35.67;32.17;;;8.00;99.90;;;;;;5029400;28;20869;-54
2022/11/26 02:38:56;;;;;;;34.90;32.00;;;8.00;99.90;;;;;;5031168;28;20495;-51
2022/11/26 02:41:22;;;;;;;36.47;33.27;;;8.00;99.90;;;;;;5031179;28;20906;-49
2022/11/26 02:43:48;;;;;;;36.17;33.17;;;8.00;99.90;;;;;;5031369;28;20189;-54
2022/11/26 02:46:17;;;;;;;36.00;32.90;;;8.00;99.90;;;;;;5029415;28;20197;-59
2022/11/26 02:48:48;;;;;;;36.27;32.87;;;8.10;99.90;;;;;;5027806;28;20451;-54
2022/11/26 02:51:19;;;;;;;35.83;32.73;;;8.10;99.90;;;;;;5031076;28;20420;-52
2022/11/26 02:53:46;;;;;;;36.40;33.17;;;8.10;99.90;;;;;;5030895;28;20496;-54
2022/11/26 02:56:18;;;;;;;35.73;32.87;;;8.00;99.90;;;;;;5031090;28;20957;-53
2022/11/26 02:58:44;;;;;;;34.60;31.60;;;8.10;99.90;;;;;;5030865;28;20472;-55
2022/11/26 03:01:18;;;;;;;34.80;31.57;;;8.10;99.90;;;;;;5030659;28;20742;-54
2022/11/26 03:03:47;;;;;;;36.10;32.30;;;8.10;99.90;;;;;;5030226;28;20432;-57
2022/11/26 03:06:15;;;;;;;35.23;32.07;;;8.00;99.90;;;;;;5029215;28;20490;-49
2022/11/26 03:08:43;;;;;;;35.23;32.03;;;8.10;99.90;;;;;;5030709;28;20512;-52
2022/11/26 03:11:08;;;;;;;36.93;33.60;;;8.00;99.90;;;;;;5030694;28;20417;-52
2022/11/26 03:13:34;;;;;;;35.60;32.40;;;8.00;99.90;;;;;;5027898;28;20521;-53
2022/11/26 03:15:59;;;;;;;36.93;33.73;;;8.00;99.90;;;;;;5029151;28;20194;-53
2022/11/26 03:18:25;;;;;;;35.97;33.07;;;8.00;99.90;;;;;;5029059;28;20229;-55
2022/11/26 03:20:50;;;;;;;35.00;31.90;;;8.00;99.90;;;;;;5030868;28;20538;-52
2022/11/26 03:23:16;;;;;;;36.93;33.53;;;8.00;99.90;;;;;;5030685;28;20186;-53
2022/11/26 03:25:42;;;;;;;35.00;32.10;;;8.00;99.90;;;;;;5030562;28;20245;-53
2022/11/26 03:28:07;;;;;;;36.57;32.77;;;8.00;99.90;;;;;;5029051;28;20647;-52
2022/11/26 03:30:33;;;;;;;36.60;33.40;;;8.00;99.90;;;;;;5029337;28;20186;-54
2022/11/26 03:32:58;;;;;;;34.80;31.80;;;8.00;99.90;;;;;;5030273;28;20194;-55
2022/11/26 03:35:24;;;;;;;36.17;33.17;;;8.00;99.90;;;;;;5030579;28;20181;-53
2022/11/26 03:37:50;;;;;;;37.60;34.20;;;8.00;99.90;;;;;;5030234;28;20234;-52
2022/11/26 03:40:16;;;;;;;35.60;32.73;;;8.00;99.90;;;;;;5030153;28;20214;-53
2022/11/26 03:42:42;;;;;;;35.23;32.33;;;8.00;99.90;;;;;;5030055;28;20185;-55
2022/11/26 03:45:09;;;;;;;35.20;32.40;;;8.00;99.90;;;;;;5019978;28;20454;-55
2022/11/26 03:47:34;;;;;;;34.80;32.00;;;8.00;99.90;;;;;;5025738;28;20504;-57
2022/11/26 03:50:00;;;;;;;34.93;32.13;;;8.00;99.90;;;;;;5030030;28;20512;-51
2022/11/26 03:52:25;;;;;;;33.67;30.80;;;8.00;99.90;;;;;;5029948;28;20189;-51
2022/11/26 03:54:51;;;;;;;32.33;29.50;;;8.10;99.90;;;;;;5029983;28;20205;-56
2022/11/26 03:57:17;;;;;;;33.50;30.87;;;8.10;99.90;;;;;;5029653;28;20565;-53
2022/11/26 03:59:42;;;;;;;32.63;30.20;;;8.10;99.90;;;;;;5028602;28;20244;-53
2022/11/26 04:02:08;;;;;;;33.60;31.00;;;8.10;99.90;;;;;;5029758;28;20198;-56
2022/11/26 04:04:34;;;;;;;34.03;31.20;;;8.00;99.90;;;;;;5029959;28;20759;-53
2022/11/26 04:06:59;;;;;;;33.20;30.57;;;8.00;99.90;;;;;;5029728;28;20280;-53
2022/11/26 04:09:25;;;;;;;34.73;31.97;;;8.00;99.90;;;;;;5029623;28;20645;-54
2022/11/26 04:11:51;;;;;;;34.37;31.57;;;7.90;99.90;;;;;;5029761;28;20644;-56
2022/11/26 04:14:17;;;;;;;34.83;31.90;;;7.90;99.90;;;;;;5028249;28;20276;-51
2022/11/26 04:16:42;;;;;;;33.67;31.17;;;8.00;99.90;;;;;;5029412;28;20194;-53
2022/11/26 04:19:08;;;;;;;34.40;31.07;;;7.90;99.90;;;;;;5029358;28;20990;-54
2022/11/26 04:21:34;;;;;;;35.17;31.77;;;8.00;99.90;;;;;;5028370;28;20189;-56
2022/11/26 04:23:59;;;;;;;35.27;31.87;;;8.00;99.90;;;;;;5029313;28;20174;-55
2022/11/26 04:26:25;;;;;;;33.67;30.87;;;8.00;99.90;;;;;;5029223;28;20183;-52
2022/11/26 04:28:50;;;;;;;34.57;31.77;;;8.00;99.90;;;;;;5029471;28;20270;-56
2022/11/26 04:31:17;;;;;;;34.50;31.63;;;8.00;99.90;;;;;;5029068;28;20191;-55
2022/11/26 04:33:42;;;;;;;34.57;31.67;;;8.00;99.90;;;;;;5029278;28;20190;-54
2022/11/26 04:36:08;;;;;;;34.27;31.30;;;8.00;99.90;;;;;;5028898;28;20497;-55
2022/11/26 04:38:34;;;;;;;34.30;31.47;;;8.00;99.90;;;;;;5029071;28;20217;-52
2022/11/26 04:41:00;;;;;;;34.20;31.43;;;8.00;99.90;;;;;;5027654;28;20276;-56
2022/11/26 04:43:25;;;;;;;35.20;32.20;;;8.00;99.90;;;;;;5021699;28;20202;-55
2022/11/26 04:45:51;;;;;;;34.90;32.03;;;8.00;99.90;;;;;;5028877;28;20612;-53
2022/11/26 04:48:17;;;;;;;33.40;30.37;;;8.00;99.90;;;;;;5029333;28;20273;-53
2022/11/26 04:50:43;;;;;;;35.07;31.97;;;8.10;99.90;;;;;;5028869;28;20170;-54
2022/11/26 04:53:08;;;;;;;33.97;30.73;;;8.00;99.90;;;;;;5027892;28;20528;-54
2022/11/26 04:55:34;;;;;;;35.40;32.20;;;8.10;99.90;;;;;;5028603;28;20281;-54
2022/11/26 04:58:00;;;;;;;35.10;32.00;;;8.10;99.90;;;;;;5028045;28;20232;-55
2022/11/26 05:00:25;;;;;;;36.83;33.43;;;8.10;99.90;;;;;;5028316;28;20262;-54
2022/11/26 05:02:51;;;;;;;35.70;32.60;;;8.10;99.90;;;;;;5028717;28;20594;-55
2022/11/26 05:05:17;;;;;;;35.83;32.40;;;8.10;99.90;;;;;;5028626;28;20431;-55
2022/11/26 05:07:43;;;;;;;34.90;31.80;;;8.00;99.90;;;;;;5028779;28;20209;-58
2022/11/26 05:10:09;;;;;;;35.87;32.47;;;8.10;99.90;;;;;;5028161;28;20189;-52
2022/11/26 05:12:35;;;;;;;35.43;32.33;;;8.10;99.90;;;;;;5026785;28;20624;-52
2022/11/26 05:15:02;;;;;;;34.07;30.93;;;8.10;99.90;;;;;;5028833;28;20409;-52
2022/11/26 05:17:27;;;;;;;36.70;33.40;;;8.10;99.90;;;;;;5028624;28;20911;-57
2022/11/26 05:19:53;;;;;;;37.57;33.80;;;8.10;99.90;;;;;;5027532;28;20551;-55
2022/11/26 05:22:19;;;;;;;37.70;34.23;;;8.10;99.90;;;;;;5028568;28;20182;-55
2022/11/26 05:24:44;;;;;;;37.57;34.03;;;8.10;99.90;;;;;;5028468;28;20587;-55
2022/11/26 05:27:10;;;;;;;36.67;33.40;;;8.10;99.90;;;;;;5028633;28;20174;-53
2022/11/26 05:29:35;;;;;;;36.77;33.27;;;8.10;99.90;;;;;;5028895;28;20190;-55
2022/11/26 05:32:01;;;;;;;38.30;34.90;;;8.10;99.90;;;;;;5028245;28;20179;-56
2022/11/26 05:34:27;;;;;;;36.90;33.50;;;8.10;99.90;;;;;;5028359;28;20252;-53
2022/11/26 05:36:52;;;;;;;37.90;34.30;;;8.10;99.90;;;;;;5028370;28;20189;-54
2022/11/26 05:39:18;;;;;;;38.90;35.10;;;8.10;99.90;;;;;;5028349;28;20202;-56
2022/11/26 05:41:43;;;;;;;39.50;35.20;;;8.10;99.90;;;;;;5027719;28;20519;-54
2022/11/26 05:44:09;;;;;;;38.37;34.70;;;8.10;99.90;;;;;;5015088;28;20189;-54
2022/11/26 05:46:38;;;;;;;38.00;34.30;;;8.10;99.90;;;;;;5027353;28;20186;-52
2022/11/26 05:49:04;;;;;;;38.07;34.30;;;8.10;99.90;;;;;;5028529;28;20178;-53
2022/11/26 05:51:29;;;;;;;37.70;34.40;;;8.20;99.90;;;;;;5026912;28;20855;-53
2022/11/26 05:53:55;;;;;;;37.20;33.70;;;8.20;99.90;;;;;;5028254;28;20637;-54
2022/11/26 05:56:21;;;;;;;38.07;34.50;;;8.20;99.90;;;;;;5027814;28;20276;-54
2022/11/26 05:58:46;;;;;;;37.10;33.20;;;8.20;99.90;;;;;;5028094;28;20226;-55
2022/11/26 06:01:12;;;;;;;39.23;35.43;;;8.20;99.90;;;;;;5027490;28;20190;-53
2022/11/26 06:03:38;;;;;;;39.10;35.23;;;8.10;99.90;;;;;;5027881;28;20186;-52
2022/11/26 06:06:04;;;;;;;38.57;34.70;;;8.20;99.90;;;;;;5028009;28;20614;-54
2022/11/26 06:08:29;;;;;;;38.80;35.00;;;8.20;99.90;;;;;;5028322;28;20201;-56
2022/11/26 06:10:55;;;;;;;38.93;35.10;;;8.20;99.90;;;;;;5027169;28;20433;-57
2022/11/26 06:13:21;;;;;;;43.10;36.30;;;8.20;99.90;;;;;;5028524;28;20719;-55
2022/11/26 06:15:46;;;;;;;37.63;34.13;;;8.20;99.90;;;;;;5024074;28;20185;-55
2022/11/26 06:18:12;;;;;;;39.00;34.90;;;8.20;99.90;;;;;;5026251;28;20464;-58
2022/11/26 06:20:37;;;;;;;40.97;35.40;;;8.10;99.90;;;;;;5027912;28;20553;-57
2022/11/26 06:23:04;;;;;;;38.87;35.00;;;8.10;99.90;;;;;;5029601;28;20266;-56
2022/11/26 06:25:30;;;;;;;40.40;35.93;;;8.20;99.90;;;;;;5030795;28;20194;-57
2022/11/26 06:27:56;;;;;;;38.63;34.93;;;8.20;99.90;;;;;;5030893;28;20425;-56
2022/11/26 06:30:22;;;;;;;38.70;35.00;;;8.10;99.90;;;;;;5029198;28;20429;-57
2022/11/26 06:32:48;;;;;;;37.80;34.10;;;8.10;99.90;;;;;;5029660;28;20612;-57
2022/11/26 06:35:14;;;;;;;40.90;36.67;;;8.10;99.90;;;;;;5029011;28;20621;-57
2022/11/26 06:37:40;;;;;;;39.27;35.47;;;8.10;99.90;;;;;;5029699;28;20526;-57
2022/11/26 06:40:07;;;;;;;39.80;35.90;;;8.10;99.90;;;;;;5030584;28;20868;-61
2022/11/26 06:42:33;;;;;;;39.53;35.77;;;8.00;99.90;;;;;;5025212;28;20444;-55
2022/11/26 06:44:58;;;;;;;40.53;36.13;;;8.10;99.90;;;;;;5026140;28;20453;-57
2022/11/26 06:47:24;;;;;;;41.70;37.27;;;8.00;99.90;;;;;;5028520;28;20729;-55
2022/11/26 06:49:50;;;;;;;40.43;36.30;;;8.00;99.90;;;;;;5030483;28;20527;-56
2022/11/26 06:52:15;;;;;;;41.50;37.40;;;8.10;99.90;;;;;;5029572;28;20256;-55
2022/11/26 06:54:41;;;;;;;40.47;36.60;;;8.10;99.90;;;;;;5030271;28;20214;-56
2022/11/26 06:57:07;;;;;;;40.40;36.27;;;8.10;99.90;;;;;;5029581;28;20190;-53
2022/11/26 06:59:33;;;;;;;44.30;38.17;;;8.10;99.90;;;;;;5031195;28;20923;-57
2022/11/26 07:01:58;;;;;;;42.33;38.37;;;8.10;99.90;;;;;;5028504;28;20186;-57
2022/11/26 07:04:24;;;;;;;41.17;37.20;;;8.10;99.90;;;;;;5030611;28;20186;-56
2022/11/26 07:06:49;;;;;;;42.17;37.70;;;8.10;99.90;;;;;;5029091;28;20316;-58
2022/11/26 07:09:15;;;;;;;42.27;37.83;;;8.10;99.90;;;;;;5022169;28;20206;-57
2022/11/26 07:11:41;;;;;;;41.40;36.90;;;8.10;99.90;;;;;;5019426;28;20265;-58
2022/11/26 07:14:07;;;;;;;41.47;37.07;;;8.10;99.90;;;;;;5020009;28;20198;-58
2022/11/26 07:16:34;;;;;;;40.50;36.60;;;8.20;99.90;;;;;;5021252;28;20441;-60
2022/11/26 07:19:00;;;;;;;42.73;36.83;;;8.20;99.90;;;;;;5021661;28;20265;-58
2022/11/26 07:21:27;;;;;;;40.70;36.50;;;8.20;99.90;;;;;;5020822;28;20539;-57
2022/11/26 07:23:53;;;;;;;40.23;35.90;;;8.20;99.90;;;;;;5020599;28;20475;-57
2022/11/26 07:26:20;;;;;;;39.23;35.20;;;8.20;99.90;;;;;;5020488;28;20467;-55
2022/11/26 07:28:46;;;;;;;40.43;35.97;;;8.30;99.90;;;;;;5019466;28;20499;-58
2022/11/26 07:31:15;;;;;;;38.77;35.07;;;8.30;99.90;;;;;;5020769;28;20452;-55
2022/11/26 07:33:40;;;;;;;39.20;35.33;;;8.30;99.90;;;;;;5019350;28;20441;-57
2022/11/26 07:36:20;;;;;;;37.43;33.90;;;8.30;99.90;;;;;;5020371;28;20447;-55
2022/11/26 07:38:46;;;;;;;39.10;34.90;;;8.30;99.90;;;;;;5035313;28;20611;-56
2022/11/26 07:41:16;;;;;;;39.93;36.07;;;8.30;99.90;;;;;;5021533;28;20508;-56
2022/11/26 07:43:42;;;;;;;36.80;33.10;;;8.30;99.90;;;;;;5019771;28;20787;-56
2022/11/26 07:46:10;;;;;;;38.27;34.60;;;8.30;99.90;;;;;;5014531;28;20436;-56
2022/11/26 07:48:38;;;;;;;37.57;33.63;;;8.30;99.90;;;;;;5019687;28;20440;-56
2022/11/26 07:51:03;;;;;;;36.87;33.00;;;8.30;99.90;;;;;;5020330;28;20437;-56
2022/11/26 07:53:31;;;;;;;35.40;31.97;;;8.30;99.90;;;;;;5029345;28;20456;-58
2022/11/26 07:55:57;;;;;;;33.90;30.30;;;8.30;99.90;;;;;;5026138;28;20183;-54
2022/11/26 07:58:23;;;;;;;35.30;31.87;;;8.30;99.90;;;;;;5028930;28;20594;-56
2022/11/26 08:00:48;;;;;;;34.63;31.20;;;8.30;99.90;;;;;;5028291;28;20877;-55
2022/11/26 08:03:14;;;;;;;35.77;32.40;;;8.30;99.90;;;;;;5029774;28;20529;-59
2022/11/26 08:05:41;;;;;;;34.00;30.60;;;8.30;99.90;;;;;;5029757;28;20214;-56
2022/11/26 08:08:07;;;;;;;35.53;32.40;;;8.40;99.90;;;;;;5026741;28;20190;-58
2022/11/26 08:10:33;;;;;;;35.57;31.87;;;8.40;99.90;;;;;;5029106;28;20440;-56
2022/11/26 08:12:58;;;;;;;36.60;33.10;;;8.40;99.90;;;;;;5049601;28;20267;-56
2022/11/26 08:15:24;;;;;;;32.13;29.43;;;8.50;99.90;;;;;;5049890;28;20747;-53
2022/11/26 08:17:54;;;;;;;33.40;30.43;;;8.40;99.90;;;;;;5045018;28;20272;-55
2022/11/26 08:20:19;;;;;;;32.80;29.73;;;8.50;99.90;;;;;;5028119;28;20223;-56
2022/11/26 08:22:45;;;;;;;34.77;31.50;;;8.50;99.90;;;;;;5041252;28;20421;-57
2022/11/26 08:25:11;;;;;;;32.20;29.20;;;8.50;99.90;;;;;;5032077;28;20673;-57
2022/11/26 08:27:36;;;;;;;32.37;29.30;;;8.50;99.90;;;;;;5029429;28;20256;-54
2022/11/26 08:30:03;;;;;;;31.00;28.13;;;8.60;99.90;;;;;;5029208;28;20703;-56
2022/11/26 08:32:29;;;;;;;32.50;29.10;;;8.50;99.90;;;;;;5029638;28;20926;-57
2022/11/26 08:34:54;;;;;;;31.37;28.27;;;8.50;99.90;;;;;;5028415;28;20441;-60
2022/11/26 08:37:20;;;;;;;33.47;27.90;;;8.50;99.90;;;;;;5029297;28;20178;-57
2022/11/26 08:39:46;;;;;;;27.73;25.33;;;8.60;99.90;;;;;;5029004;28;20228;-56
2022/11/26 08:42:11;;;;;;;28.23;25.77;;;8.60;99.90;;;;;;5029287;28;20663;-57
2022/11/26 08:44:37;;;;;;;29.23;26.10;;;8.60;99.90;;;;;;5027175;28;20240;-57
2022/11/26 08:47:02;;;;;;;32.03;29.07;;;8.60;99.90;;;;;;5028480;28;20170;-57
2022/11/26 08:49:28;;;;;;;27.17;24.73;;;8.60;99.90;;;;;;5029339;28;20194;-58
2022/11/26 08:51:55;;;;;;;26.10;23.80;;;8.70;99.90;;;;;;5028976;28;20186;-57
2022/11/26 08:54:21;;;;;;;26.17;23.67;;;8.80;99.90;;;;;;5029389;28;20632;-57
2022/11/26 08:56:47;;;;;;;24.77;22.33;;;8.90;99.90;;;;;;5029040;28;20417;-55
2022/11/26 08:59:13;;;;;;;26.27;23.57;;;9.00;99.90;;;;;;5028549;28;20482;-60
2022/11/26 09:01:39;;;;;;;25.03;22.63;;;9.10;99.90;;;;;;5028623;28;20261;-54
2022/11/26 09:04:05;;;;;;;23.90;21.90;;;9.40;99.90;;;;;;5027128;28;20228;-56
2022/11/26 09:06:32;;;;;;;22.50;20.40;;;9.60;99.90;;;;;;5028418;28;20552;-55
2022/11/26 09:09:12;;;;;;;22.70;19.90;;;9.80;99.90;;;;;;5028678;28;20245;-57
2022/11/26 09:11:53;;;;;;;21.37;19.37;;;9.90;99.90;;;;;;5029143;28;20424;-56
2022/11/26 09:14:21;;;;;;;21.20;19.10;;;9.90;99.90;;;;;;5028795;28;20409;-57
2022/11/26 09:16:47;;;;;;;20.83;18.93;;;9.90;99.90;;;;;;5028846;28;20474;-55
2022/11/26 09:19:14;;;;;;;20.73;18.63;;;10.00;99.90;;;;;;5028696;28;20464;-56
2022/11/26 09:21:39;;;;;;;20.00;18.27;;;9.90;99.90;;;;;;5028672;28;20189;-56
2022/11/26 09:24:05;;;;;;;22.50;18.67;;;9.90;99.90;;;;;;5028498;28;20723;-54
2022/11/26 09:26:32;;;;;;;19.73;17.73;;;9.80;99.90;;;;;;5028374;28;20455;-57
2022/11/26 09:28:58;;;;;;;21.20;19.30;;;9.80;99.90;;;;;;5028443;28;20428;-55
2022/11/26 09:31:24;;;;;;;18.80;16.97;;;9.70;99.90;;;;;;5028180;28;20793;-52
2022/11/26 09:33:50;;;;;;;20.13;18.03;;;9.70;99.90;;;;;;5027453;28;20433;-56
2022/11/26 09:36:17;;;;;;;21.03;19.00;;;9.70;99.90;;;;;;5028058;28;20448;-55
2022/11/26 09:38:43;;;;;;;20.77;18.67;;;9.60;99.90;;;;;;5028394;28;20198;-54
2022/11/26 09:41:29;;;;;;;22.20;18.40;;;9.70;99.90;;;;;;5028180;28;20421;-56
2022/11/26 09:43:57;;;;;;;21.80;19.60;;;9.70;99.90;;;;;;5028341;28;20178;-55
2022/11/26 09:46:31;;;;;;;20.63;18.57;;;9.60;99.90;;;;;;5028043;28;20417;-58
2022/11/26 09:48:58;;;;;;;21.07;19.07;;;9.60;99.90;;;;;;5028598;28;20420;-57
2022/11/26 09:51:24;;;;;;;20.07;18.10;;;9.60;99.90;;;;;;5015537;28;20421;-54
2022/11/26 09:53:51;;;;;;;19.13;17.23;;;9.60;99.90;;;;;;5026920;28;20424;-54
2022/11/26 09:56:23;;;;;;;19.90;18.13;;;9.60;99.90;;;;;;5020822;28;20409;-53
2022/11/26 09:59:04;;;;;;;19.57;17.43;;;9.60;99.90;;;;;;5027604;28;20996;-60
2022/11/26 10:01:32;;;;;;;17.97;16.37;;;9.70;99.90;;;;;;5029866;28;20794;-54
2022/11/26 10:03:58;;;;;;;19.63;17.53;;;9.60;99.90;;;;;;5025852;28;20426;-54
2022/11/26 10:07:04;;;;;;;20.13;18.13;;;9.60;99.90;;;;;;5020647;28;21077;-56
2022/11/26 10:09:33;;;;;;;19.33;17.47;;;9.60;99.90;;;;;;5022045;28;21227;-59
2022/11/26 10:12:13;;;;;;;18.17;16.23;;;9.60;99.90;;;;;;5021098;28;20429;-55
2022/11/26 10:14:45;;;;;;;20.37;18.20;;;9.60;99.90;;;;;;5022810;28;20421;-56
2022/11/26 10:17:57;;;;;;;33.90;25.30;;;9.50;99.90;;;;;;5021520;28;20735;-56
2022/11/26 10:21:07;;;;;;;33.97;25.03;;;9.40;99.90;;;;;;4999318;28;20453;-58
2022/11/26 10:23:35;;;;;;;26.33;23.10;;;9.40;99.90;;;;;;4984132;28;20461;-52
2022/11/26 10:26:21;;;;;;;20.50;17.37;;;9.30;99.90;;;;;;5016424;28;20472;-58
2022/11/26 10:28:50;;;;;;;21.80;17.20;;;9.40;99.90;;;;;;5021428;28;20482;-51
2022/11/26 10:31:22;;;;;;;19.53;17.70;;;9.50;99.90;;;;;;5021621;28;20436;-56
2022/11/26 10:33:55;;;;;;;41.17;29.70;;;9.50;99.90;;;;;;5021484;28;20520;-58
2022/11/26 10:36:28;;;;;;;18.47;16.83;;;9.50;99.90;;;;;;5021345;28;20594;-55
2022/11/26 10:38:55;;;;;;;18.00;16.27;;;9.60;99.90;;;;;;5021533;28;20452;-55
2022/11/26 10:41:23;;;;;;;18.70;16.80;;;9.70;99.90;;;;;;5035745;28;20476;-55
2022/11/26 10:43:49;;;;;;;18.33;16.50;;;9.70;99.90;;;;;;5021769;28;20480;-56
2022/11/26 10:46:31;;;;;;;17.37;15.80;;;9.80;99.90;;;;;;5022580;28;20512;-59
2022/11/26 10:49:34;;;;;;;16.80;15.50;;;9.80;99.90;;;;;;5019950;28;20186;-55
2022/11/26 10:52:02;;;;;;;17.83;15.90;;;9.80;99.90;;;;;;5020751;28;20445;-53
2022/11/26 10:54:34;;;;;;;16.10;14.70;;;9.70;99.90;;;;;;5021261;28;20436;-56
2022/11/26 10:57:08;;;;;;;16.70;15.20;;;9.70;99.90;;;;;;5020787;28;20506;-61
2022/11/26 10:59:50;;;;;;;16.50;15.00;;;9.70;99.90;;;;;;5017627;28;20472;-55
2022/11/26 11:02:18;;;;;;;15.77;14.47;;;9.70;99.90;;;;;;5005287;28;20453;-54
2022/11/26 11:04:49;;;;;;;16.10;14.77;;;9.70;99.90;;;;;;5014470;28;20437;-55
2022/11/26 11:07:36;;;;;;;14.93;13.53;;;9.70;99.90;;;;;;5019382;28;20753;-51
2022/11/26 11:10:08;;;;;;;15.27;13.80;;;9.60;99.90;;;;;;5016073;28;20440;-53
2022/11/26 11:12:35;;;;;;;15.87;14.57;;;9.60;99.90;;;;;;5019596;28;20441;-52
2022/11/26 11:15:24;;;;;;;17.00;15.03;;;9.50;99.90;;;;;;5017591;28;20502;-53
2022/11/26 11:17:58;;;;;;;16.73;14.93;;;9.40;99.90;;;;;;5032445;28;20510;-56
2022/11/26 11:20:37;;;;;;;14.57;13.27;;;9.40;99.90;;;;;;5017892;28;20417;-54
2022/11/26 11:23:23;;;;;;;17.17;15.60;;;9.40;99.90;;;;;;5021546;28;20508;-58
2022/11/26 11:26:20;;;;;;;14.43;13.10;;;9.40;99.90;;;;;;5021170;28;20487;-56
2022/11/26 11:28:49;;;;;;;15.30;13.80;;;9.40;99.90;;;;;;5017620;28;20449;-54
2022/11/26 11:31:20;;;;;;;15.00;13.60;;;9.30;99.90;;;;;;5019419;28;20938;-59
2022/11/26 11:33:47;;;;;;;15.10;13.70;;;9.30;99.90;;;;;;5017810;28;20943;-53
2022/11/26 11:36:12;;;;;;;14.83;13.63;;;9.40;99.90;;;;;;5021555;28;20417;-55
2022/11/26 11:38:52;;;;;;;19.17;14.03;;;9.40;99.90;;;;;;5019635;28;20476;-53
2022/11/26 11:41:28;;;;;;;15.87;14.60;;;9.40;99.90;;;;;;5019678;28;20293;-55
2022/11/26 11:44:02;;;;;;;14.87;13.40;;;9.50;99.90;;;;;;5020480;28;20420;-54
2022/11/26 11:46:36;;;;;;;17.30;15.10;;;9.50;99.90;;;;;;5020302;28;20735;-51
2022/11/26 11:49:41;;;;;;;15.30;14.10;;;9.50;99.90;;;;;;5018908;28;20933;-55
2022/11/26 11:52:06;;;;;;;14.13;12.80;;;9.50;99.90;;;;;;5018575;28;20863;-50
2022/11/26 11:54:44;;;;;;;15.83;14.40;;;9.60;99.90;;;;;;5018365;28;20421;-50
2022/11/26 11:57:27;;;;;;;15.67;14.17;;;9.60;99.90;;;;;;5018354;28;20628;-54
2022/11/26 12:00:12;;;;;;;15.50;14.20;;;9.60;99.90;;;;;;5019005;28;21039;-55
2022/11/26 12:02:43;;;;;;;16.30;14.73;;;9.60;99.90;;;;;;5018176;28;20495;-53
2022/11/26 12:05:28;;;;;;;15.10;13.60;;;9.80;99.90;;;;;;5017991;28;20435;-51
2022/11/26 12:08:06;;;;;;;15.07;13.60;;;9.80;99.90;;;;;;5019244;28;20582;-55
2022/11/26 12:11:04;;;;;;;15.20;13.60;;;9.90;99.90;;;;;;5018356;28;20815;-51
2022/11/26 12:13:41;;;;;;;15.10;13.80;;;10.00;99.90;;;;;;5017601;28;21221;-54
2022/11/26 12:16:11;;;;;;;16.27;14.60;;;10.00;99.90;;;;;;5020419;28;20939;-51
2022/11/26 12:18:46;;;;;;;14.43;13.10;;;10.10;99.90;;;;;;5018631;28;20460;-54
2022/11/26 12:21:13;;;;;;;15.47;14.30;;;10.20;99.90;;;;;;5018214;28;20425;-51
2022/11/26 12:24:01;;;;;;;16.53;14.83;;;10.30;99.90;;;;;;5018891;28;20441;-53
2022/11/26 12:26:54;;;;;;;16.40;14.80;;;10.30;99.90;;;;;;5018876;28;20433;-55
2022/11/26 12:29:37;;;;;;;20.13;18.10;;;10.30;99.90;;;;;;5019377;28;20425;-53
2022/11/26 12:32:34;;;;;;;22.93;20.83;;;10.30;99.90;;;;;;5019081;28;20441;-52
2022/11/26 12:35:05;;;;;;;37.27;33.93;;;10.30;99.90;;;;;;5017809;28;20448;-57
2022/11/26 12:37:39;;;;;;;18.30;16.80;;;10.30;99.90;;;;;;5020107;28;20424;-52
2022/11/26 12:40:08;;;;;;;18.67;17.13;;;10.30;99.90;;;;;;5018579;28;20472;-49
2022/11/26 12:42:46;;;;;;;14.30;12.93;;;10.40;99.90;;;;;;5019248;28;21045;-57
2022/11/26 12:45:24;;;;;;;14.13;12.90;;;10.30;99.90;;;;;;5015681;28;20532;-54
2022/11/26 12:47:58;;;;;;;14.37;13.17;;;10.40;99.90;;;;;;5019044;28;20456;-51
2022/11/26 12:50:46;;;;;;;15.10;13.53;;;10.40;99.90;;;;;;5017441;28;20937;-59